N415DB PAAK-PADK

Flight info

Callsign N415DB
Flight time 0h 47m
Altitude 8000
Route HIMKI1 HIMKI LONOK
Aircraft C208/L-SBDFGRY/LU2

Departure

Time 2026-05-09 00:51
Airport Atka Airport (PAAK)

Arrival

Time 2026-05-09 01:39
Airport Adak Airport (PADK)
Time Latitude Longitude Altitude Speed Heading
2026-05-09 00:42 52.21610 -174.20697 35 ft 0 kts 341°
2026-05-09 00:47 52.21612 -174.20698 35 ft 1 kts 343°
2026-05-09 00:48 52.21636 -174.20693 35 ft 6 kts 28°
2026-05-09 00:48 52.21674 -174.20626 36 ft 11 kts 62°
2026-05-09 00:48 52.21701 -174.20492 38 ft 14 kts 47°
2026-05-09 00:48 52.21808 -174.20509 37 ft 19 kts 344°
2026-05-09 00:49 52.21947 -174.20573 40 ft 22 kts 344°
2026-05-09 00:49 52.22109 -174.20646 42 ft 26 kts 345°
2026-05-09 00:49 52.22287 -174.20728 47 ft 28 kts 344°
2026-05-09 00:49 52.22473 -174.20802 54 ft 27 kts 346°
2026-05-09 00:50 52.22624 -174.20865 57 ft 17 kts 345°
2026-05-09 00:50 52.22612 -174.20876 56 ft 7 kts 163°
2026-05-09 00:50 52.22596 -174.20869 50 ft 14 kts 165°
2026-05-09 00:50 52.22338 -174.20746 49 ft 62 kts 165°
2026-05-09 00:51 52.21820 -174.20513 127 ft 83 kts 165°
2026-05-09 00:51 52.21254 -174.20226 319 ft 86 kts 142°
2026-05-09 00:51 52.20994 -174.19342 481 ft 96 kts 104°
2026-05-09 00:51 52.20871 -174.18196 677 ft 106 kts 101°
2026-05-09 00:52 52.20744 -174.16993 917 ft 109 kts 100°
2026-05-09 00:52 52.20656 -174.16161 1091 ft 112 kts 100°
2026-05-09 00:52 52.20522 -174.14892 1330 ft 115 kts 100°
2026-05-09 00:52 52.20384 -174.13596 1555 ft 120 kts 101°
2026-05-09 00:53 52.20238 -174.12234 1780 ft 124 kts 101°
2026-05-09 00:53 52.20084 -174.10817 2001 ft 130 kts 101°
2026-05-09 00:53 52.19928 -174.09335 2234 ft 136 kts 101°
2026-05-09 00:53 52.19761 -174.07785 2451 ft 141 kts 101°
2026-05-09 00:54 52.19595 -174.06216 2660 ft 140 kts 103°
2026-05-09 00:54 52.19422 -174.04667 2868 ft 137 kts 102°
2026-05-09 00:54 52.19259 -174.03155 3072 ft 133 kts 103°
2026-05-09 00:54 52.19306 -174.01687 3266 ft 136 kts 67°
2026-05-09 00:55 52.20069 -174.00744 3473 ft 145 kts 23°
2026-05-09 00:55 52.21063 -174.00428 3682 ft 145 kts 16°
2026-05-09 00:55 52.22043 -174.00090 3889 ft 143 kts 18°
2026-05-09 00:55 52.23009 -173.99731 4097 ft 142 kts 19°
2026-05-09 00:56 52.23965 -173.99368 4306 ft 141 kts 19°
2026-05-09 00:56 52.24917 -173.99005 4512 ft 140 kts 19°
2026-05-09 00:56 52.25869 -173.98640 4722 ft 140 kts 20°
2026-05-09 00:56 52.26817 -173.98277 4926 ft 140 kts 19°
2026-05-09 00:57 52.27761 -173.97916 5132 ft 139 kts 19°
2026-05-09 00:57 52.28703 -173.97556 5337 ft 139 kts 19°
2026-05-09 00:57 52.29641 -173.97196 5545 ft 138 kts 19°
2026-05-09 00:57 52.30577 -173.96837 5753 ft 138 kts 19°
2026-05-09 00:58 52.31513 -173.96477 5956 ft 138 kts 19°
2026-05-09 00:58 52.32449 -173.96117 6174 ft 138 kts 19°
2026-05-09 00:58 52.33381 -173.95760 6374 ft 137 kts 19°
2026-05-09 00:58 52.34313 -173.95401 6571 ft 137 kts 19°
2026-05-09 00:59 52.35243 -173.95044 6766 ft 137 kts 19°
2026-05-09 00:59 52.36165 -173.94724 6962 ft 140 kts
2026-05-09 00:59 52.37064 -173.95345 7153 ft 147 kts 313°
2026-05-09 00:59 52.37429 -173.96872 7360 ft 145 kts 262°
2026-05-09 01:00 52.37231 -173.98448 7574 ft 141 kts 251°
2026-05-09 01:00 52.37026 -174.00028 7796 ft 141 kts 252°
2026-05-09 01:00 52.36815 -174.01602 7978 ft 144 kts 252°
2026-05-09 01:00 52.36588 -174.03257 7992 ft 157 kts 252°
2026-05-09 01:01 52.36346 -174.05055 7995 ft 166 kts 253°
2026-05-09 01:01 52.36096 -174.06918 7994 ft 167 kts 254°
2026-05-09 01:01 52.35848 -174.08772 7990 ft 167 kts 254°
2026-05-09 01:01 52.35598 -174.10629 7984 ft 167 kts 254°
2026-05-09 01:02 52.35348 -174.12485 7988 ft 167 kts 254°
2026-05-09 01:02 52.35097 -174.14355 7985 ft 169 kts 254°
2026-05-09 01:02 52.34843 -174.16233 7986 ft 168 kts 254°
2026-05-09 01:02 52.34591 -174.18100 7980 ft 166 kts 254°
2026-05-09 01:03 52.34343 -174.19917 7981 ft 165 kts 254°
2026-05-09 01:03 52.34094 -174.21752 7983 ft 165 kts 254°
2026-05-09 01:03 52.33846 -174.23581 7983 ft 165 kts 254°
2026-05-09 01:03 52.33595 -174.25427 7983 ft 167 kts 254°
2026-05-09 01:04 52.33341 -174.27281 7986 ft 168 kts 253°
2026-05-09 01:04 52.33083 -174.29162 7983 ft 172 kts 255°
2026-05-09 01:04 52.32822 -174.31075 7982 ft 172 kts 253°
2026-05-09 01:04 52.32561 -174.32983 7978 ft 171 kts 254°
2026-05-09 01:05 52.32303 -174.34869 7976 ft 169 kts 254°
2026-05-09 01:05 52.32050 -174.36717 7976 ft 168 kts 254°
2026-05-09 01:05 52.31537 -174.40453 7945 ft 169 kts 254°
2026-05-09 01:06 52.31278 -174.42330 7945 ft 169 kts 253°
2026-05-09 01:06 52.31018 -174.44213 7944 ft 170 kts 254°
2026-05-09 01:06 52.30758 -174.46106 7945 ft 171 kts 254°
2026-05-09 01:06 52.30495 -174.47999 7944 ft 171 kts 253°
2026-05-09 01:07 52.30234 -174.49881 7948 ft 169 kts 254°
2026-05-09 01:07 52.29974 -174.51761 7944 ft 169 kts 253°
2026-05-09 01:07 52.29714 -174.53635 7942 ft 169 kts 253°
2026-05-09 01:07 52.29454 -174.55507 7941 ft 169 kts 253°
2026-05-09 01:08 52.29198 -174.57348 7940 ft 168 kts 253°
2026-05-09 01:08 52.28936 -174.59234 7939 ft 168 kts 253°
2026-05-09 01:08 52.28679 -174.61073 7940 ft 168 kts 253°
2026-05-09 01:08 52.28421 -174.62928 7940 ft 168 kts 253°
2026-05-09 01:09 52.28160 -174.64791 7938 ft 168 kts 253°
2026-05-09 01:09 52.27898 -174.66663 7939 ft 168 kts 253°
2026-05-09 01:09 52.27638 -174.68525 7940 ft 168 kts 253°
2026-05-09 01:09 52.27378 -174.70369 7939 ft 168 kts 253°
2026-05-09 01:10 52.27116 -174.72235 7941 ft 169 kts 253°
2026-05-09 01:10 52.26853 -174.74103 7940 ft 168 kts 253°
2026-05-09 01:10 52.26591 -174.75967 7940 ft 168 kts 253°
2026-05-09 01:10 52.26327 -174.77830 7937 ft 168 kts 253°
2026-05-09 01:11 52.26065 -174.79695 7926 ft 168 kts 253°
2026-05-09 01:11 52.25801 -174.81558 7928 ft 168 kts 253°
2026-05-09 01:11 52.25539 -174.83417 7929 ft 168 kts 253°
2026-05-09 01:11 52.25278 -174.85252 7927 ft 168 kts 253°
2026-05-09 01:12 52.25014 -174.87111 7928 ft 168 kts 253°
2026-05-09 01:12 52.24750 -174.88973 7928 ft 168 kts 253°
2026-05-09 01:12 52.24485 -174.90834 7927 ft 169 kts 253°
2026-05-09 01:12 52.24220 -174.92699 7926 ft 169 kts 253°
2026-05-09 01:13 52.23954 -174.94565 7929 ft 168 kts 253°
2026-05-09 01:13 52.23688 -174.96424 7928 ft 168 kts 253°
2026-05-09 01:13 52.23422 -174.98283 7928 ft 168 kts 253°
2026-05-09 01:13 52.23156 -175.00142 7928 ft 168 kts 253°
2026-05-09 01:14 52.22894 -175.01975 7926 ft 168 kts 253°
2026-05-09 01:14 52.22628 -175.03824 7926 ft 168 kts 253°
2026-05-09 01:14 52.22362 -175.05683 7927 ft 168 kts 253°
2026-05-09 01:14 52.22095 -175.07540 7927 ft 168 kts 254°
2026-05-09 01:15 52.21828 -175.09396 7927 ft 169 kts 254°
2026-05-09 01:15 52.21559 -175.11266 7927 ft 169 kts 254°
2026-05-09 01:15 52.21289 -175.13132 7930 ft 170 kts 254°
2026-05-09 01:15 52.21019 -175.14996 7929 ft 171 kts 254°
2026-05-09 01:16 52.20747 -175.16878 7928 ft 170 kts 254°
2026-05-09 01:16 52.20475 -175.18751 7928 ft 170 kts 254°
2026-05-09 01:16 52.20205 -175.20621 7928 ft 169 kts 254°
2026-05-09 01:17 52.19663 -175.24353 7928 ft 169 kts 254°
2026-05-09 01:17 52.19391 -175.26218 7928 ft 169 kts 254°
2026-05-09 01:17 52.19119 -175.28082 7929 ft 169 kts 254°
2026-05-09 01:17 52.18850 -175.29923 7931 ft 170 kts 254°
2026-05-09 01:18 52.18576 -175.31802 7932 ft 171 kts 255°
2026-05-09 01:18 52.18297 -175.33707 7929 ft 173 kts 255°
2026-05-09 01:18 52.18017 -175.35618 7932 ft 173 kts 254°
2026-05-09 01:18 52.17738 -175.37523 7928 ft 172 kts 255°
2026-05-09 01:19 52.17461 -175.39411 7927 ft 170 kts 255°
2026-05-09 01:19 52.17188 -175.41273 7923 ft 168 kts 255°
2026-05-09 01:19 52.16916 -175.43120 7921 ft 167 kts 254°
2026-05-09 01:19 52.16645 -175.44955 7919 ft 166 kts 254°
2026-05-09 01:20 52.16374 -175.46787 7915 ft 166 kts 254°
2026-05-09 01:20 52.16107 -175.48606 7918 ft 165 kts 254°
2026-05-09 01:20 52.15838 -175.50419 7917 ft 164 kts 254°
2026-05-09 01:20 52.15574 -175.52205 7918 ft 164 kts 254°
2026-05-09 01:21 52.15307 -175.54007 7915 ft 163 kts 254°
2026-05-09 01:21 52.14974 -175.55763 7918 ft 161 kts 245°
2026-05-09 01:21 52.14549 -175.57456 7917 ft 162 kts 246°
2026-05-09 01:21 52.14135 -175.59164 7915 ft 162 kts 246°
2026-05-09 01:22 52.13723 -175.60871 7918 ft 162 kts 246°
2026-05-09 01:22 52.13307 -175.62587 7918 ft 162 kts 246°
2026-05-09 01:22 52.12892 -175.64297 7919 ft 163 kts 246°
2026-05-09 01:22 52.12475 -175.66014 7919 ft 163 kts 246°
2026-05-09 01:23 52.12056 -175.67736 7924 ft 163 kts 246°
2026-05-09 01:23 52.11637 -175.69455 7924 ft 164 kts 246°
2026-05-09 01:23 52.11218 -175.71175 7926 ft 163 kts 246°
2026-05-09 01:23 52.10805 -175.72869 7926 ft 163 kts 246°
2026-05-09 01:24 52.10386 -175.74585 7928 ft 163 kts 246°
2026-05-09 01:24 52.09964 -175.76311 7927 ft 164 kts 246°
2026-05-09 01:24 52.09541 -175.78043 7929 ft 164 kts 246°
2026-05-09 01:24 52.09117 -175.79775 7930 ft 165 kts 246°
2026-05-09 01:25 52.08693 -175.81505 7926 ft 165 kts 246°
2026-05-09 01:25 52.08270 -175.83236 7925 ft 165 kts 246°
2026-05-09 01:25 52.07850 -175.84945 7925 ft 164 kts 246°
2026-05-09 01:25 52.07425 -175.86678 7923 ft 165 kts 245°
2026-05-09 01:26 52.06999 -175.88412 7935 ft 165 kts 246°
2026-05-09 01:26 52.06571 -175.90157 7936 ft 166 kts 246°
2026-05-09 01:26 52.06144 -175.91894 7940 ft 166 kts 246°
2026-05-09 01:26 52.05710 -175.93650 7946 ft 169 kts 246°
2026-05-09 01:27 52.05270 -175.95441 7944 ft 172 kts 246°
2026-05-09 01:27 52.04820 -175.97267 7947 ft 176 kts 246°
2026-05-09 01:27 52.04359 -175.99127 7869 ft 181 kts 246°
2026-05-09 01:27 52.03878 -176.01058 7673 ft 186 kts 247°
2026-05-09 01:28 52.03402 -176.02999 7474 ft 188 kts 246°
2026-05-09 01:28 52.02912 -176.04973 7273 ft 188 kts 245°
2026-05-09 01:28 52.02428 -176.06934 7140 ft 184 kts 246°
2026-05-09 01:28 52.01966 -176.08806 7134 ft 174 kts 246°
2026-05-09 01:29 52.01528 -176.10565 7130 ft 162 kts 247°
2026-05-09 01:29 52.01107 -176.12263 6993 ft 164 kts 246°
2026-05-09 01:29 52.00674 -176.13998 6817 ft 167 kts 247°
2026-05-09 01:29 52.00236 -176.15765 6643 ft 170 kts 246°
2026-05-09 01:30 51.99787 -176.17559 6471 ft 171 kts 247°
2026-05-09 01:30 51.99347 -176.19328 6302 ft 171 kts 247°
2026-05-09 01:30 51.98904 -176.21112 6148 ft 169 kts 247°
2026-05-09 01:30 51.98478 -176.22808 6140 ft 155 kts 247°
2026-05-09 01:31 51.98089 -176.24356 6128 ft 143 kts 250°
2026-05-09 01:31 51.97771 -176.25824 6126 ft 133 kts 265°
2026-05-09 01:31 51.98053 -176.27132 6051 ft 127 kts 320°
2026-05-09 01:31 51.98902 -176.27637 5798 ft 137 kts 346°
2026-05-09 01:32 51.99642 -176.28657 5567 ft 149 kts 295°
2026-05-09 01:32 51.99663 -176.30315 5402 ft 151 kts 258°
2026-05-09 01:32 51.99457 -176.31997 5165 ft 153 kts 251°
2026-05-09 01:32 51.98986 -176.33538 4929 ft 152 kts 242°
2026-05-09 01:33 51.98491 -176.35049 4690 ft 151 kts 243°
2026-05-09 01:33 51.97993 -176.36535 4443 ft 150 kts 243°
2026-05-09 01:33 51.97481 -176.38008 4196 ft 150 kts 243°
2026-05-09 01:33 51.96970 -176.39478 3949 ft 150 kts 243°
2026-05-09 01:34 51.96464 -176.40937 3707 ft 150 kts 243°
2026-05-09 01:34 51.95948 -176.42417 3462 ft 151 kts 244°
2026-05-09 01:34 51.95431 -176.43905 3218 ft 152 kts 244°
2026-05-09 01:34 51.94912 -176.45399 2971 ft 152 kts 244°
2026-05-09 01:35 51.94400 -176.46870 2733 ft 145 kts 245°
2026-05-09 01:35 51.93923 -176.48247 2502 ft 136 kts 246°
2026-05-09 01:35 51.93468 -176.49565 2288 ft 131 kts 246°
2026-05-09 01:35 51.93027 -176.50834 2073 ft 128 kts 246°
2026-05-09 01:36 51.92595 -176.52074 1863 ft 125 kts 246°
2026-05-09 01:36 51.92170 -176.53294 1660 ft 124 kts 247°
2026-05-09 01:36 51.91751 -176.54501 1455 ft 122 kts 246°
2026-05-09 01:36 51.91334 -176.55700 1251 ft 121 kts 246°
2026-05-09 01:37 51.90928 -176.56865 1054 ft 112 kts 246°
2026-05-09 01:37 51.90564 -176.57905 866 ft 104 kts 246°
2026-05-09 01:37 51.90219 -176.58895 693 ft 94 kts 246°
2026-05-09 01:37 51.89892 -176.59763 564 ft 86 kts 248°
2026-05-09 01:38 51.89617 -176.60599 424 ft 83 kts 249°
2026-05-09 01:38 51.89433 -176.61146 359 ft 84 kts 244°
2026-05-09 01:38 51.89147 -176.61976 215 ft 84 kts 245°
2026-05-09 01:38 51.88773 -176.63072 34 ft 79 kts 240°
2026-05-09 01:39 51.88546 -176.63715 26 ft 49 kts 240°
2026-05-09 01:39 51.88453 -176.63983 25 ft 34 kts 240°
2026-05-09 01:39 51.88354 -176.64270 24 ft 20 kts 241°
2026-05-09 01:39 51.88278 -176.64336 25 ft 10 kts 180°
2026-05-09 01:40 51.88210 -176.64337 25 ft 0 kts 179°
2026-05-09 01:40 51.88193 -176.64338 25 ft 7 kts 181°
2026-05-09 01:40 51.88118 -176.64340 25 ft 15 kts 181°
2026-05-09 01:40 51.88000 -176.64349 25 ft 17 kts 191°
2026-05-09 01:41 51.87871 -176.64414 24 ft 19 kts 197°
2026-05-09 01:41 51.87749 -176.64477 24 ft 20 kts 198°
2026-05-09 01:41 51.87629 -176.64542 23 ft 18 kts 199°
2026-05-09 01:41 51.87490 -176.64613 23 ft 19 kts 197°
2026-05-09 01:42 51.87402 -176.64659 23 ft 9 kts 189°
2026-05-09 01:42 51.87339 -176.64580 23 ft 10 kts 98°
2026-05-09 01:42 51.87338 -176.64566 23 ft 0 kts 88°